KFOT - Fortuna, California, USA
Updated: Fri, 23-Feb-2018 5:35pm PST
Clear
Clear
 Wind from NNW
Wind: NNW 9 mph , 15 km/h
Temperature: 41°F , 5°C
Wind Chill: 35°F , 2°C
Dew Point: 27°F , -3°C
Humidity: 57%
Barometer: 30.47 inHg , 1031.8 hPa
Clouds: Clear
Visibility: 10 miles , 16 km
2018/02/24 01:35 KFOT 240135Z AUTO 34008KT 10SM CLR 05/M03 A3047 RMK AO1

Metar display script from Saratoga-Weather.org